|
|
|
|
|
|
|
MADHYA PRADESH PASCHIM KSHETRA VIDYUT VITARAN CO. LTD.
|
|
|
|
CURRENT LOAD DETAILS OF 33KV FEEDERS COMES UNDER GROUP (XIII)
- SORTED BY
| S/S Name | ssid | alocation | district | Feeder Name | Group | fstatus | Date | Time | Present Load | Switching Date | Switching Time | Load Relief |
| 132KV BETMA | 221 | D1 | INDORE | 33KV INDUSTRIAL | XIII | ON | 08 May 26 | 20:26:14 | 4.548 | 19 Apr 26 | 22:30:14 | 0 |
| 132KV BAGDI | 214 | D6 | DHAR | 33KV INDUSTRIAL-I | XIII | ON | 08 May 26 | 11:40:16 | 0.3234 | 06 May 26 | 10:34:17 | 0 |
| 132KV BAGDI | 214 | D6 | DHAR | 33KV INDUSTRIAL-II | XIII | ON | 08 May 26 | 11:40:17 | 0.2268 | 21 Sep 25 | 15:44:21 | 0 |
| 220KV PITHAMPUR_SEC1 | 104 | D6 | DHAR | 33KV BAJAJ TEMPO | XIII | ON | 08 May 26 | 19:18:13 | 11.385 | 26 Apr 26 | 11:24:13 | 0 |
| 220KV PITHAMPUR_SEC1 | 104 | D6 | DHAR | 33KV PRESTIGE METAL | XIII | ON | 08 May 26 | 19:18:13 | 13.559 | 03 May 26 | 17:30:13 | 0 |
| 220KV PITHAMPUR_SEC1 | 104 | D6 | DHAR | 33KV EICHER | XIII | ON | 08 May 26 | 19:18:14 | 10.768 | 03 May 26 | 09:20:13 | 0 |
| 220KV PITHAMPUR_SEC1 | 104 | D6 | DHAR | 33KV L.T.INDUSTRIES | XIII | ON | 08 May 26 | 19:18:15 | 16.041 | 06 May 26 | 07:03:14 | 0 |
| 220KV PITHAMPUR_SEC1 | 104 | D6 | DHAR | 33KV RAJRATAN | XIII | ON | 08 May 26 | 19:18:15 | 3.996 | 02 Apr 26 | 13:39:15 | 0 |
| 220KV PITHAMPUR_SEC1 | 104 | D6 | DHAR | 33KV KINETIC HONDA | XIII | ON | 08 May 26 | 19:18:16 | 9.456 | 07 May 26 | 21:15:16 | 0 |
| 220KV PITHAMPUR_SEC1 | 104 | D6 | DHAR | 33KV NICHOLAS | XIII | ON | 08 May 26 | 19:18:19 | 11.8392 | 23 Apr 26 | 18:45:19 | 0 |
| 220KV PITHAMPUR_SEC1 | 104 | D6 | DHAR | 33KV RAJSHREE | XIII | ON | 08 May 26 | 19:18:20 | 11.0879 | 28 Apr 26 | 12:20:24 | 0 |
| 220KV PITHAMPUR_SEC3 | 102 | D6 | DHAR | 33KV METALMAN-I | XIII | ON | 08 May 26 | 19:26:12 | 14.723 | 06 May 26 | 11:58:13 | 0 |
| 220KV PITHAMPUR_SEC3 | 102 | D6 | DHAR | 33KV METALMAN-II | XIII | ON | 08 May 26 | 19:26:12 | 14.892 | 08 Apr 26 | 09:44:43 | 0 |
| 220KV PITHAMPUR_SEC3 | 102 | D6 | DHAR | 33KV GIRNAR | XIII | ON | 08 May 26 | 19:26:13 | 16.225 | 03 May 26 | 14:14:13 | 0 |
| 220KV PITHAMPUR_SEC3 | 102 | D6 | DHAR | 33KV CHIRAG | XIII | ON | 08 May 26 | 19:26:13 | 2.652 | 26 Apr 26 | 12:26:20 | 0 |
| 220KV PITHAMPUR_SEC3 | 102 | D6 | DHAR | 33KV NOVINO | XIII | ON | 08 May 26 | 19:26:14 | 8.1733 | 04 May 26 | 01:56:17 | 0 |
| 220KV PITHAMPUR_SEC3 | 102 | D6 | DHAR | 33KV PRATIBHA | XIII | ON | 08 May 26 | 19:26:14 | 4.212 | 26 Feb 26 | 15:57:18 | 0 |
| 220KV PITHAMPUR_SEC3 | 102 | D6 | DHAR | 33KV SRF | XIII | ON | 08 May 26 | 19:26:21 | 6.864 | 26 Apr 26 | 12:28:25 | 0 |
| 220KV PITHAMPUR_SEC3 | 102 | D6 | DHAR | 33KV SHIVANGI | XIII | ON | 08 May 26 | 19:26:22 | 8.9024 | 24 Apr 26 | 17:31:24 | 0 |
| 220KV PITHAMPUR_SEC3 | 102 | D6 | DHAR | 33KV AKVN-I | XIII | ON | 08 May 26 | 19:26:24 | 16.7324 | 07 May 26 | 21:43:24 | 0 |
| 220KV PITHAMPUR_SEC3 | 102 | D6 | DHAR | 33KV AKVN-II | XIII | ON | 08 May 26 | 19:26:25 | 5.7964 | 27 Apr 26 | 19:03:28 | 0 |
| 132KV MEGHNAGAR | 108 | D7 | JHABUA | 33KV INDUSTRIAL | XIII | ON | 08 May 26 | 19:25:14 | 5.1 | 21 Apr 26 | 15:32:22 | 0 |
| 132KV MEGHNAGAR | 108 | D7 | JHABUA | 33KV SR FERRO ALLOY | XIII | ON | 08 May 26 | 19:25:15 | 0.864 | 01 Apr 26 | 16:59:16 | 0 |
| 132KV VIK_UDYOGPURI | 379 | D9 | UJJAIN | 33KV VIK_UDYOGPURI-2 | XIII | ON | 08 May 26 | 19:49:06 | 4.7323 | 06 May 26 | 15:05:06 | 0 |
| Total | | | | | | | | | 203.0991 | | | 0 |
|
|
|
|
|
|
|